createdAt,value
2019-04-06T04:01:00.495Z,86.94
2019-04-06T04:03:26.607Z,87.27
2019-04-06T04:05:52.515Z,86.33
2019-04-06T04:08:18.363Z,86.11
2019-04-06T04:10:47.065Z,85.72
2019-04-06T04:13:12.161Z,86.56
2019-04-06T04:15:37.924Z,85.84
2019-04-06T04:18:03.846Z,85.70
2019-04-06T04:20:29.680Z,86.71
2019-04-06T04:22:55.453Z,86.63
2019-04-06T04:25:21.362Z,87.07
2019-04-06T04:27:47.203Z,86.47
2019-04-06T04:30:15.211Z,87.51
2019-04-06T04:32:41.069Z,87.69
2019-04-06T04:35:07.314Z,89.18
2019-04-06T04:37:33.305Z,89.22
2019-04-06T04:39:59.091Z,89.13
2019-04-06T04:42:24.852Z,88.61
2019-04-06T04:44:50.644Z,87.73
2019-04-06T04:47:16.794Z,87.73
2019-04-06T04:49:42.757Z,86.54
2019-04-06T04:52:08.750Z,86.02
2019-04-06T04:54:34.512Z,86.20
2019-04-06T04:57:00.284Z,86.99
2019-04-06T04:59:26.066Z,87.32
2019-04-06T05:01:52.114Z,87.90
2019-04-06T05:04:18.236Z,86.96
2019-04-06T05:06:44.266Z,86.87
2019-04-06T05:09:10.410Z,87.17
2019-04-06T05:11:36.145Z,88.00
2019-04-06T05:14:39.812Z,87.44
2019-04-06T05:17:05.835Z,87.55
2019-04-06T05:19:31.965Z,87.65
2019-04-06T05:21:57.751Z,87.75
2019-04-06T05:24:23.806Z,87.88
2019-04-06T05:26:49.575Z,88.97
2019-04-06T05:29:15.644Z,88.38
2019-04-06T05:31:41.488Z,88.47
2019-04-06T05:34:07.211Z,89.22
2019-04-06T05:36:32.965Z,89.76
2019-04-06T05:38:58.748Z,90.09
2019-04-06T05:41:24.522Z,90.55
2019-04-06T05:43:50.299Z,90.50
2019-04-06T05:46:15.990Z,89.73
2019-04-06T05:48:41.742Z,88.61
2019-04-06T05:51:07.523Z,88.22
2019-04-06T05:53:33.537Z,88.68
2019-04-06T05:55:59.238Z,89.55
2019-04-06T05:58:24.973Z,90.46
2019-04-06T06:00:50.747Z,91.22
2019-04-06T06:03:16.432Z,91.89
2019-04-06T06:05:42.166Z,92.33
2019-04-06T06:08:08.250Z,92.11
2019-04-06T06:10:34.375Z,92.60
2019-04-06T06:13:00.503Z,92.71
2019-04-06T06:15:26.371Z,92.67
2019-04-06T06:17:52.069Z,92.98
2019-04-06T06:20:18.154Z,93.04
2019-04-06T06:22:43.933Z,93.09
2019-04-06T06:25:09.785Z,92.97
2019-04-06T06:27:35.653Z,92.58
2019-04-06T06:30:02.635Z,92.42
2019-04-06T06:32:28.396Z,91.76
2019-04-06T06:34:54.089Z,91.46
2019-04-06T06:37:19.799Z,91.26
2019-04-06T06:39:45.797Z,91.34
2019-04-06T06:42:11.516Z,91.20
2019-04-06T06:44:37.205Z,90.55
2019-04-06T06:47:02.920Z,89.84
2019-04-06T06:49:28.772Z,89.53
2019-04-06T06:51:54.931Z,88.96
2019-04-06T06:54:21.076Z,87.39
2019-04-06T06:56:46.772Z,87.49
2019-04-06T06:59:12.809Z,87.87
2019-04-06T07:01:38.605Z,87.44
2019-04-06T07:04:04.529Z,87.22
2019-04-06T07:06:30.461Z,86.12
2019-04-06T07:08:56.149Z,85.75
2019-04-06T07:11:21.889Z,84.86
2019-04-06T07:13:47.697Z,84.22
2019-04-06T07:16:13.959Z,84.09
2019-04-06T07:18:39.717Z,83.38
2019-04-06T07:21:05.416Z,83.15
2019-04-06T07:23:31.159Z,83.59
2019-04-06T07:25:58.923Z,82.74
2019-04-06T07:28:36.304Z,82.54
2019-04-06T07:30:52.121Z,82.63
2019-04-06T07:33:17.817Z,81.22
2019-04-06T07:35:43.757Z,82.01
2019-04-06T07:38:09.520Z,81.83
2019-04-06T07:40:35.625Z,82.03
2019-04-06T07:43:01.406Z,81.95
2019-04-06T07:45:27.198Z,81.76
2019-04-06T07:47:52.964Z,81.65
2019-04-06T07:50:18.899Z,79.83
2019-04-06T07:52:45.037Z,79.52
2019-04-06T07:55:10.725Z,79.72
2019-04-06T07:57:36.449Z,79.11
2019-04-06T08:00:05.932Z,79.44
2019-04-06T08:02:31.897Z,79.44
2019-04-06T08:04:58.107Z,78.71
2019-04-06T08:07:23.960Z,79.18
2019-04-06T08:09:49.806Z,79.34
2019-04-06T08:12:15.616Z,79.02
2019-04-06T08:14:41.379Z,79.00
2019-04-06T08:17:07.153Z,79.81
2019-04-06T08:19:32.959Z,79.50
2019-04-06T08:21:59.076Z,79.41
2019-04-06T08:24:24.866Z,78.70
2019-04-06T08:26:50.623Z,78.36
2019-04-06T08:29:16.390Z,78.01
2019-04-06T08:31:42.462Z,77.97
2019-04-06T08:34:08.461Z,75.15
2019-04-06T08:36:34.600Z,76.84
2019-04-06T08:39:00.590Z,75.96
2019-04-06T08:41:26.304Z,74.88
2019-04-06T08:43:52.533Z,73.13
2019-04-06T08:46:18.693Z,73.38
2019-04-06T08:48:44.669Z,73.34
2019-04-06T08:51:10.397Z,72.97
2019-04-06T08:53:36.459Z,73.12
2019-04-06T08:56:02.154Z,71.50
2019-04-06T08:58:28.054Z,72.14
2019-04-06T09:00:53.860Z,70.77
2019-04-06T09:03:19.842Z,71.66
2019-04-06T09:05:45.624Z,70.89
2019-04-06T09:08:11.424Z,69.22
2019-04-06T09:10:37.203Z,68.47
2019-04-06T09:13:02.974Z,66.86
2019-04-06T09:15:28.958Z,67.35
2019-04-06T09:17:55.213Z,66.16
2019-04-06T09:20:21.456Z,66.56
2019-04-06T09:22:47.573Z,66.40
2019-04-06T09:25:13.550Z,65.86
2019-04-06T09:27:39.290Z,63.43
2019-04-06T09:30:05.106Z,61.04
2019-04-06T09:32:30.886Z,61.56
2019-04-06T09:34:56.660Z,61.74
2019-04-06T09:37:22.771Z,59.91
2019-04-06T09:39:48.717Z,56.83
2019-04-06T09:42:14.939Z,58.45
2019-04-06T09:44:45.439Z,58.25
2019-04-06T09:47:13.117Z,58.71
2019-04-06T09:49:43.583Z,60.74
2019-04-06T09:52:23.868Z,59.28
2019-04-06T09:54:54.304Z,57.07
2019-04-06T09:57:21.988Z,55.51
2019-04-06T09:59:49.737Z,55.87
2019-04-06T10:02:35.679Z,56.72
2019-04-06T10:05:07.397Z,56.05
2019-04-06T10:07:41.121Z,55.97
2019-04-06T10:10:14.593Z,56.34
2019-04-06T10:12:51.356Z,53.66
2019-04-06T10:15:31.367Z,53.22
2019-04-06T10:18:01.753Z,53.92
2019-04-06T10:20:41.473Z,53.64
2019-04-06T10:23:21.370Z,52.89
2019-04-06T10:25:55.250Z,52.46
2019-04-06T10:28:40.075Z,51.57
2019-04-06T10:31:07.787Z,50.94
2019-04-06T10:33:44.546Z,51.68
2019-04-06T10:36:12.384Z,52.35
2019-04-06T10:38:49.106Z,52.50
2019-04-06T10:41:25.886Z,51.55
2019-04-06T10:44:06.317Z,50.56
2019-04-06T10:46:34.034Z,51.74
2019-04-06T10:49:18.621Z,52.40
2019-04-06T10:51:49.369Z,50.63
2019-04-06T10:54:33.842Z,49.81
2019-04-06T10:57:01.805Z,50.43
2019-04-06T10:59:35.820Z,50.14
2019-04-06T11:02:21.049Z,50.61
2019-04-06T11:04:48.877Z,50.19
2019-04-06T11:07:33.349Z,51.35
2019-04-06T11:10:07.629Z,49.56
2019-04-06T11:12:38.083Z,49.28
2019-04-06T11:15:23.840Z,49.22
2019-04-06T11:17:57.639Z,48.15
2019-04-06T11:20:40.637Z,46.91
2019-04-06T11:23:14.283Z,46.51
2019-04-06T11:25:41.964Z,46.57
2019-04-06T11:28:09.775Z,45.04
2019-04-06T11:30:43.782Z,47.03
2019-04-06T11:33:17.528Z,46.55
2019-04-06T11:36:00.633Z,46.23
2019-04-06T11:38:28.372Z,44.06
2019-04-06T11:40:56.050Z,46.94
2019-04-06T11:43:24.216Z,46.57
2019-04-06T11:46:08.739Z,46.59
2019-04-06T11:48:39.066Z,44.89
2019-04-06T11:51:23.037Z,43.09
2019-04-06T11:54:02.574Z,44.52
2019-04-06T11:56:30.362Z,44.45
2019-04-06T11:58:58.045Z,45.14
2019-04-06T12:01:42.681Z,43.20
2019-04-06T12:04:22.768Z,43.14
2019-04-06T12:06:53.316Z,43.15
2019-04-06T12:09:21.407Z,44.77
2019-04-06T12:12:01.770Z,42.08
2019-04-06T12:14:29.634Z,44.33
2019-04-06T12:16:57.707Z,45.07
2019-04-06T12:19:25.392Z,44.90
2019-04-06T12:22:10.961Z,45.94
2019-04-06T12:24:55.645Z,45.61
2019-04-06T12:27:42.094Z,44.90
2019-04-06T12:30:37.312Z,45.11
2019-04-06T12:32:58.510Z,45.63
2019-04-06T12:35:32.235Z,44.27
2019-04-06T12:38:06.368Z,44.00
2019-04-06T12:40:34.386Z,44.04
2019-04-06T12:43:16.823Z,44.05
2019-04-06T12:46:02.877Z,44.66
2019-04-06T12:48:33.522Z,43.67
2019-04-06T12:51:13.890Z,44.20
2019-04-06T12:53:44.563Z,44.06
2019-04-06T12:56:29.053Z,43.23
2019-04-06T12:59:02.790Z,44.86
2019-04-06T13:01:33.781Z,44.64
2019-04-06T13:04:01.785Z,44.55
2019-04-06T13:06:39.292Z,44.31
2019-04-06T13:09:13.438Z,43.82
2019-04-06T13:11:43.757Z,44.21
2019-04-06T13:14:23.902Z,45.14
2019-04-06T13:17:04.316Z,41.72
2019-04-06T13:19:43.774Z,43.02
2019-04-06T13:22:11.579Z,41.81
2019-04-06T13:24:42.312Z,43.19
2019-04-06T13:27:12.960Z,42.67
2019-04-06T13:29:57.699Z,41.09
2019-04-06T13:32:40.695Z,40.25
2019-04-06T13:35:14.194Z,41.40
2019-04-06T13:37:45.103Z,40.92
2019-04-06T13:40:29.417Z,38.93
2019-04-06T13:43:12.391Z,40.50
2019-04-06T13:45:45.844Z,40.87
2019-04-06T13:48:16.051Z,41.29
2019-04-06T13:50:49.472Z,41.48
2019-04-06T13:53:17.161Z,41.88
2019-04-06T13:56:01.846Z,40.97
2019-04-06T13:58:42.011Z,40.49
2019-04-06T14:01:15.968Z,42.26
2019-04-06T14:03:49.255Z,42.42
2019-04-06T14:06:23.147Z,40.62
2019-04-06T14:08:53.356Z,44.73
2019-04-06T14:11:21.317Z,43.38
2019-04-06T14:13:49.281Z,43.75
2019-04-06T14:16:16.966Z,44.39
2019-04-06T14:18:44.649Z,42.62
2019-04-06T14:21:12.589Z,42.48
2019-04-06T14:23:46.287Z,42.63
2019-04-06T14:26:22.579Z,43.95
2019-04-06T14:28:55.856Z,43.92
2019-04-06T14:31:29.497Z,43.42
2019-04-06T14:33:58.524Z,42.49
2019-04-06T14:36:26.425Z,42.21
2019-04-06T14:39:06.441Z,43.71
2019-04-06T14:41:51.338Z,45.06
2019-04-06T14:44:34.066Z,44.89
2019-04-06T14:47:17.098Z,44.51
2019-04-06T14:49:51.236Z,45.83
2019-04-06T14:52:35.532Z,45.25
2019-04-06T14:55:03.504Z,44.88
2019-04-06T14:57:40.125Z,45.43
2019-04-06T15:00:16.584Z,46.12
2019-04-06T15:02:47.274Z,45.73
2019-04-06T15:05:20.995Z,45.38
2019-04-06T15:07:49.077Z,45.81
2019-04-06T15:10:16.757Z,47.86
2019-04-06T15:12:44.774Z,46.65
2019-04-06T15:15:21.637Z,46.44
2019-04-06T15:17:54.292Z,45.17
2019-04-06T15:20:21.581Z,45.41
2019-04-06T15:22:50.010Z,45.81
2019-04-06T15:25:34.480Z,47.37
2019-04-06T15:28:05.292Z,46.86
2019-04-06T15:30:41.859Z,47.01
2019-04-06T15:33:18.645Z,45.82
2019-04-06T15:35:58.200Z,45.74
2019-04-06T15:38:25.843Z,46.43
2019-04-06T15:40:56.331Z,46.51
2019-04-06T15:43:40.610Z,46.68
2019-04-06T15:46:24.915Z,46.19
2019-04-06T15:49:09.379Z,46.04
2019-04-06T15:51:46.302Z,46.36
2019-04-06T15:54:16.943Z,45.21
2019-04-06T15:56:44.898Z,45.45
2019-04-06T15:59:15.514Z,45.05
2019-04-06T16:02:00.349Z,45.07
2019-04-06T16:04:38.154Z,45.81
2019-04-06T16:07:09.235Z,47.46
2019-04-06T16:09:54.135Z,47.05
2019-04-06T16:12:34.578Z,47.35
2019-04-06T16:15:08.032Z,48.22
2019-04-06T16:17:42.270Z,49.94
2019-04-06T16:20:28.746Z,49.92
2019-04-06T16:23:14.933Z,49.77
2019-04-06T16:25:57.641Z,49.77
2019-04-06T16:28:30.875Z,50.22
2019-04-06T16:31:01.624Z,49.78
2019-04-06T16:33:29.725Z,50.24
2019-04-06T16:36:03.280Z,50.13
2019-04-06T16:38:36.767Z,50.72
2019-04-06T16:41:13.330Z,50.83
2019-04-06T16:43:57.385Z,50.52
2019-04-06T16:46:28.085Z,51.59
2019-04-06T16:49:04.352Z,50.87
2019-04-06T16:51:32.037Z,51.09
2019-04-06T16:54:05.744Z,50.42
2019-04-06T16:56:33.590Z,50.42
2019-04-06T16:59:04.827Z,50.43
2019-04-06T17:01:32.538Z,51.01
2019-04-06T17:04:08.786Z,52.15
2019-04-06T17:06:37.210Z,51.78
2019-04-06T17:09:09.573Z,51.83
2019-04-06T17:11:40.024Z,52.52
2019-04-06T17:14:13.614Z,52.62
2019-04-06T17:16:56.790Z,52.83
2019-04-06T17:19:37.101Z,53.25
2019-04-06T17:22:07.649Z,53.40
2019-04-06T17:24:43.896Z,53.95
2019-04-06T17:27:14.632Z,54.44
2019-04-06T17:29:51.711Z,54.68
2019-04-06T17:32:19.678Z,55.26
2019-04-06T17:34:53.872Z,55.81
2019-04-06T17:37:32.001Z,56.32
2019-04-06T17:40:02.190Z,56.78
2019-04-06T17:42:48.195Z,57.22
2019-04-06T17:45:32.409Z,57.71
2019-04-06T17:48:16.897Z,58.82
2019-04-06T17:50:53.745Z,59.23
2019-04-06T17:53:36.578Z,60.20
2019-04-06T17:56:13.034Z,61.09
2019-04-06T17:58:46.769Z,61.37
2019-04-06T18:01:33.011Z,61.92
2019-04-06T18:04:06.646Z,62.56
2019-04-06T18:06:34.537Z,63.33
2019-04-06T18:09:18.068Z,64.29
2019-04-06T18:11:55.178Z,64.72
2019-04-06T18:14:21.443Z,65.35
2019-04-06T18:16:47.239Z,66.78
2019-04-06T18:19:13.139Z,66.78
2019-04-06T18:21:39.218Z,66.84
2019-04-06T18:24:05.439Z,66.79
2019-04-06T18:26:31.313Z,67.30
2019-04-06T18:28:57.442Z,66.65
2019-04-06T18:31:31.356Z,66.71
2019-04-06T18:33:57.153Z,66.89
2019-04-06T18:36:24.813Z,67.05
2019-04-06T18:38:58.539Z,67.09
2019-04-06T18:41:24.627Z,67.47
2019-04-06T18:43:50.645Z,67.84
2019-04-06T18:46:16.871Z,68.24
2019-04-06T18:48:42.944Z,68.25
2019-04-06T18:51:08.800Z,68.59
2019-04-06T18:53:35.338Z,69.34
2019-04-06T18:56:01.441Z,69.89
2019-04-06T18:58:27.712Z,70.41
2019-04-06T19:00:54.006Z,70.68
2019-04-06T19:03:19.842Z,70.95
2019-04-06T19:05:46.259Z,71.04
2019-04-06T19:08:12.576Z,71.96
2019-04-06T19:10:39.379Z,72.28
2019-04-06T19:13:05.427Z,72.21
2019-04-06T19:15:31.252Z,72.16
2019-04-06T19:17:57.033Z,72.05
2019-04-06T19:20:22.804Z,72.63
2019-04-06T19:22:49.095Z,72.81
2019-04-06T19:25:16.931Z,73.36
2019-04-06T19:27:43.165Z,75.40
2019-04-06T19:30:09.274Z,73.87
2019-04-06T19:32:35.943Z,74.20
2019-04-06T19:35:04.573Z,73.65
2019-04-06T19:37:30.532Z,74.61
2019-04-06T19:39:56.308Z,75.33
2019-04-06T19:42:22.081Z,76.23
2019-04-06T19:44:47.966Z,76.12
2019-04-06T19:47:13.732Z,76.13
2019-04-06T19:49:39.871Z,76.47
2019-04-06T19:52:05.886Z,76.14
2019-04-06T19:54:31.604Z,76.09
2019-04-06T19:56:57.367Z,76.48
2019-04-06T19:59:23.140Z,77.03
2019-04-06T20:01:49.245Z,77.12
2019-04-06T20:04:15.078Z,78.06
2019-04-06T20:06:41.076Z,78.07
2019-04-06T20:09:07.276Z,77.99
2019-04-06T20:11:33.247Z,78.49
2019-04-06T20:13:59.217Z,78.88
2019-04-06T20:16:25.287Z,79.27
2019-04-06T20:18:51.103Z,79.08
2019-04-06T20:21:17.459Z,78.83
2019-04-06T20:23:43.354Z,79.44
2019-04-06T20:26:09.163Z,78.84
2019-04-06T20:28:35.366Z,79.55
2019-04-06T20:31:01.178Z,79.16
2019-04-06T20:33:27.193Z,79.50
2019-04-06T20:35:53.215Z,79.06
2019-04-06T20:38:18.976Z,79.11
2019-04-06T20:40:44.895Z,78.85
2019-04-06T20:43:13.515Z,78.42
2019-04-06T20:45:47.557Z,78.51
2019-04-06T20:48:13.325Z,78.74
2019-04-06T20:50:39.704Z,79.15
2019-04-06T20:53:05.591Z,78.33
2019-04-06T20:55:31.815Z,78.49
2019-04-06T20:57:57.580Z,79.42
